createdAt,value
2023-01-30T00:00:32.316Z,13.47
2023-01-30T00:03:04.080Z,15.10
2023-01-30T00:05:35.728Z,15.23
2023-01-30T00:08:07.694Z,18.13
2023-01-30T00:10:39.547Z,14.47
2023-01-30T00:13:12.227Z,13.33
2023-01-30T00:15:44.530Z,14.07
2023-01-30T00:18:16.216Z,14.60
2023-01-30T00:20:47.988Z,15.03
2023-01-30T00:23:19.765Z,15.90
2023-01-30T00:25:51.860Z,16.97
2023-01-30T00:28:24.671Z,16.17
2023-01-30T00:30:57.168Z,17.60
2023-01-30T00:33:29.504Z,18.47
2023-01-30T00:36:01.843Z,14.67
2023-01-30T00:38:33.808Z,16.10
2023-01-30T00:41:05.627Z,14.87
2023-01-30T00:44:12.784Z,14.83
2023-01-30T00:47:03.142Z,15.50
2023-01-30T00:49:35.990Z,16.27
2023-01-30T00:52:07.823Z,16.13
2023-01-30T00:54:39.514Z,15.10
2023-01-30T00:57:11.373Z,14.90
2023-01-30T00:59:43.094Z,15.97
2023-01-30T01:02:14.806Z,17.10
2023-01-30T01:04:46.527Z,16.77
2023-01-30T01:07:18.617Z,16.50
2023-01-30T01:09:51.190Z,17.97
2023-01-30T01:12:23.113Z,15.13
2023-01-30T01:14:54.884Z,16.77
2023-01-30T01:17:26.827Z,16.37
2023-01-30T01:19:58.598Z,16.10
2023-01-30T01:22:30.424Z,13.53
2023-01-30T01:25:02.798Z,15.30
2023-01-30T01:27:34.513Z,16.27
2023-01-30T01:30:07.052Z,14.30
2023-01-30T01:32:38.807Z,14.33
2023-01-30T01:35:10.741Z,15.23
2023-01-30T01:37:42.475Z,13.97
2023-01-30T01:40:38.604Z,15.10
2023-01-30T01:43:22.265Z,14.83
2023-01-30T01:46:00.731Z,13.97
2023-01-30T01:48:41.663Z,15.60
2023-01-30T01:51:18.795Z,13.50
2023-01-30T01:53:56.620Z,13.47
2023-01-30T01:56:29.298Z,17.00
2023-01-30T01:59:11.798Z,15.90
2023-01-30T02:01:43.536Z,14.87
2023-01-30T02:04:35.527Z,15.00
2023-01-30T02:07:08.627Z,15.37
2023-01-30T02:09:40.471Z,14.53
2023-01-30T02:12:14.893Z,16.60
2023-01-30T02:14:48.964Z,14.20
2023-01-30T02:17:20.865Z,15.30
2023-01-30T02:20:16.375Z,13.57
2023-01-30T02:22:57.989Z,17.05
2023-01-30T02:25:38.746Z,16.20
2023-01-30T02:28:19.015Z,16.10
2023-01-30T02:31:08.108Z,16.17
2023-01-30T02:33:48.800Z,15.17
2023-01-30T02:36:42.547Z,14.30
2023-01-30T02:39:22.836Z,13.53
2023-01-30T02:42:42.121Z,15.83
2023-01-30T02:45:31.632Z,16.17
2023-01-30T02:48:06.532Z,14.20
2023-01-30T02:50:44.450Z,14.17
2023-01-30T02:53:16.228Z,14.53
2023-01-30T02:55:48.041Z,16.70
2023-01-30T02:58:23.160Z,17.27
2023-01-30T03:01:11.403Z,14.20
2023-01-30T03:03:54.762Z,15.57
2023-01-30T03:06:42.596Z,14.57
2023-01-30T03:09:53.941Z,13.00
2023-01-30T03:13:06.860Z,13.33
2023-01-30T03:16:05.253Z,14.80
2023-01-30T03:18:37.280Z,16.57
2023-01-30T03:21:09.736Z,13.43
2023-01-30T03:23:41.740Z,14.43
2023-01-30T03:26:18.654Z,13.80
2023-01-30T03:28:51.773Z,12.97
2023-01-30T03:31:23.700Z,15.60
2023-01-30T03:33:55.443Z,14.47
2023-01-30T03:36:27.358Z,14.53
2023-01-30T03:38:59.314Z,13.20
2023-01-30T03:41:31.292Z,14.03
2023-01-30T03:44:03.132Z,14.40
2023-01-30T03:46:34.869Z,14.53
2023-01-30T03:49:06.609Z,14.27
2023-01-30T03:51:38.474Z,16.30
2023-01-30T03:54:10.142Z,17.30
2023-01-30T03:56:41.987Z,14.97
2023-01-30T03:59:13.727Z,13.03
2023-01-30T04:01:45.435Z,13.20
2023-01-30T04:04:17.192Z,14.53
2023-01-30T04:06:49.027Z,12.00
2023-01-30T04:09:20.858Z,13.17
2023-01-30T04:11:52.793Z,14.10
2023-01-30T04:14:24.507Z,11.13
2023-01-30T04:16:56.302Z,12.67
2023-01-30T04:19:28.137Z,11.87
2023-01-30T04:21:59.808Z,13.53
2023-01-30T04:24:31.487Z,14.57
2023-01-30T04:27:03.285Z,13.80
2023-01-30T04:29:35.251Z,10.97
2023-01-30T04:32:06.903Z,12.37
2023-01-30T04:34:38.571Z,14.40
2023-01-30T04:37:10.323Z,12.10
2023-01-30T04:39:42.147Z,13.33
2023-01-30T04:42:13.900Z,14.50
2023-01-30T04:44:45.751Z,13.80
2023-01-30T04:47:17.710Z,11.10
2023-01-30T04:49:49.653Z,12.10
2023-01-30T04:52:21.435Z,11.77
2023-01-30T04:54:53.297Z,13.87
2023-01-30T04:57:24.965Z,12.43
2023-01-30T04:59:56.779Z,11.10
2023-01-30T05:02:28.458Z,11.87
2023-01-30T05:05:00.248Z,14.07
2023-01-30T05:07:32.037Z,13.50
2023-01-30T05:10:04.058Z,14.50
2023-01-30T05:12:35.779Z,14.20
2023-01-30T05:15:08.079Z,12.03
2023-01-30T05:17:41.960Z,13.40
2023-01-30T05:20:14.877Z,12.23
2023-01-30T05:22:46.560Z,13.63
2023-01-30T05:25:18.653Z,12.40
2023-01-30T05:27:50.610Z,13.00
2023-01-30T05:30:22.501Z,10.20
2023-01-30T05:32:54.207Z,10.20
2023-01-30T05:35:25.862Z,11.10
2023-01-30T05:37:59.405Z,12.03
2023-01-30T05:40:31.223Z,12.88
2023-01-30T05:43:03.049Z,11.93
2023-01-30T05:45:34.734Z,13.20
2023-01-30T05:48:06.720Z,12.03
2023-01-30T05:50:38.463Z,12.20
2023-01-30T05:53:10.286Z,8.30
2023-01-30T05:55:43.742Z,11.57
2023-01-30T05:58:15.500Z,10.20
2023-01-30T06:00:47.221Z,9.10
2023-01-30T06:03:19.291Z,12.90
2023-01-30T06:05:50.990Z,11.60
2023-01-30T06:08:23.271Z,12.90
2023-01-30T06:10:55.004Z,11.77
2023-01-30T06:13:26.719Z,11.70
2023-01-30T06:15:58.523Z,10.77
2023-01-30T06:18:30.347Z,12.07
2023-01-30T06:21:02.117Z,10.43
2023-01-30T06:23:34.637Z,10.10
2023-01-30T06:26:09.156Z,12.93
2023-01-30T06:28:41.123Z,11.97
2023-01-30T06:31:12.946Z,11.10
2023-01-30T06:33:44.644Z,11.80
2023-01-30T06:36:16.381Z,11.33
2023-01-30T06:38:48.736Z,10.60
2023-01-30T06:41:20.577Z,11.60
2023-01-30T06:43:52.368Z,11.80
2023-01-30T06:46:24.136Z,11.57
2023-01-30T06:48:55.934Z,12.73
2023-01-30T06:51:27.704Z,11.80
2023-01-30T06:53:59.647Z,11.97
2023-01-30T06:56:31.437Z,12.63
2023-01-30T06:59:03.283Z,10.20
2023-01-30T07:01:35.110Z,10.47
2023-01-30T07:04:06.913Z,11.43
2023-01-30T07:06:40.076Z,11.67
2023-01-30T07:09:11.921Z,10.67
2023-01-30T07:11:43.756Z,11.23
2023-01-30T07:14:15.457Z,11.93
2023-01-30T07:16:47.244Z,11.43
2023-01-30T07:19:18.941Z,11.57
2023-01-30T07:21:50.682Z,11.53
2023-01-30T07:24:22.362Z,10.10
2023-01-30T07:26:54.192Z,13.30
2023-01-30T07:29:25.880Z,10.37
2023-01-30T07:31:57.685Z,10.17
2023-01-30T07:34:29.982Z,10.17
2023-01-30T07:37:01.667Z,9.33
2023-01-30T07:39:33.476Z,10.87
2023-01-30T07:42:05.841Z,9.70
2023-01-30T07:44:37.601Z,9.97
2023-01-30T07:47:09.418Z,10.80
2023-01-30T07:49:41.203Z,10.50
2023-01-30T07:52:12.990Z,9.20
2023-01-30T07:54:44.666Z,9.93
2023-01-30T07:57:16.513Z,8.63
2023-01-30T07:59:48.248Z,8.33
2023-01-30T08:02:19.978Z,9.37
2023-01-30T08:04:51.858Z,10.80
2023-01-30T08:07:23.627Z,10.03
2023-01-30T08:09:55.433Z,10.30
2023-01-30T08:12:27.688Z,9.63
2023-01-30T08:14:59.591Z,9.97
2023-01-30T08:17:31.243Z,10.40
2023-01-30T08:20:04.679Z,11.20
2023-01-30T08:22:36.462Z,10.03
2023-01-30T08:25:08.359Z,10.03
2023-01-30T08:27:40.173Z,10.95
2023-01-30T08:30:13.393Z,11.90
2023-01-30T08:32:45.115Z,12.80
2023-01-30T08:35:16.995Z,10.00
2023-01-30T08:37:48.840Z,8.83
2023-01-30T08:40:20.959Z,9.70
2023-01-30T08:42:52.864Z,9.30
2023-01-30T08:45:24.634Z,10.27
2023-01-30T08:48:00.914Z,10.27
2023-01-30T08:50:33.603Z,10.47
2023-01-30T08:53:10.005Z,11.83
2023-01-30T08:55:43.599Z,9.53
2023-01-30T08:58:15.356Z,9.33
2023-01-30T09:00:48.733Z,9.63
2023-01-30T09:03:20.535Z,9.83
2023-01-30T09:05:56.182Z,9.47
2023-01-30T09:08:27.935Z,9.90
2023-01-30T09:11:01.587Z,8.47
2023-01-30T09:13:35.007Z,9.70
2023-01-30T09:16:07.116Z,9.77
2023-01-30T09:18:44.097Z,8.87
2023-01-30T09:21:15.975Z,9.40
2023-01-30T09:23:47.805Z,9.93
2023-01-30T09:26:19.511Z,8.77
2023-01-30T09:28:51.281Z,9.70
2023-01-30T09:31:23.188Z,9.97
2023-01-30T09:33:54.925Z,8.20
2023-01-30T09:36:26.677Z,8.43
2023-01-30T09:38:58.343Z,9.47
2023-01-30T09:41:45.004Z,9.23
2023-01-30T09:44:40.966Z,7.60
2023-01-30T09:47:16.839Z,6.97
2023-01-30T09:50:12.894Z,8.73
2023-01-30T09:53:00.433Z,5.70
2023-01-30T09:55:37.332Z,6.60
2023-01-30T09:58:19.242Z,7.90
2023-01-30T10:00:56.879Z,6.77
2023-01-30T10:03:39.717Z,7.70
2023-01-30T10:06:14.472Z,7.77
2023-01-30T10:09:04.749Z,7.47
2023-01-30T10:11:59.717Z,7.20
2023-01-30T10:14:59.125Z,9.60
2023-01-30T10:18:08.166Z,10.90
2023-01-30T10:20:59.159Z,7.50
2023-01-30T10:23:52.780Z,6.40
2023-01-30T10:26:27.052Z,6.20
2023-01-30T10:29:16.044Z,7.13
2023-01-30T10:32:08.055Z,6.77
2023-01-30T10:34:43.007Z,5.30
2023-01-30T10:37:35.653Z,5.20
2023-01-30T10:40:28.911Z,5.25
2023-01-30T10:43:18.588Z,6.70
2023-01-30T10:46:10.595Z,4.40
2023-01-30T10:48:55.299Z,5.77
2023-01-30T10:51:38.471Z,5.27
2023-01-30T10:54:20.294Z,5.10
2023-01-30T10:57:21.452Z,5.20
2023-01-30T11:00:14.886Z,5.37
2023-01-30T11:03:09.726Z,5.20
2023-01-30T11:06:07.626Z,6.87
2023-01-30T11:08:39.356Z,4.70
2023-01-30T11:11:30.007Z,6.93
2023-01-30T11:14:11.011Z,7.40
2023-01-30T11:16:48.403Z,7.00
2023-01-30T11:19:25.769Z,5.60
2023-01-30T11:22:04.064Z,7.20
2023-01-30T11:24:40.345Z,5.70
2023-01-30T11:27:27.614Z,6.10
2023-01-30T11:30:20.458Z,5.90
2023-01-30T11:33:15.019Z,5.88
2023-01-30T11:36:27.001Z,5.33
2023-01-30T11:39:23.072Z,5.53
2023-01-30T11:41:57.600Z,6.93
2023-01-30T11:44:35.134Z,5.30
2023-01-30T11:47:18.083Z,6.20
2023-01-30T11:49:59.098Z,5.07
2023-01-30T11:52:46.797Z,5.73
2023-01-30T11:55:21.039Z,5.50
2023-01-30T11:57:58.589Z,4.93
2023-01-30T12:00:49.552Z,5.17
2023-01-30T12:03:25.654Z,5.20
2023-01-30T12:05:58.853Z,5.33
2023-01-30T12:08:42.187Z,5.73
2023-01-30T12:11:28.010Z,6.73
2023-01-30T12:14:13.580Z,5.23
2023-01-30T12:16:58.590Z,4.87
2023-01-30T12:19:45.402Z,6.73
2023-01-30T12:22:34.514Z,5.13
2023-01-30T12:25:29.322Z,5.20
2023-01-30T12:28:25.892Z,5.83
2023-01-30T12:31:10.753Z,6.10
2023-01-30T12:33:42.449Z,7.20
2023-01-30T12:36:40.882Z,6.33
2023-01-30T12:39:18.604Z,4.83
2023-01-30T12:41:53.118Z,6.27
2023-01-30T12:45:02.784Z,6.30
2023-01-30T12:47:50.511Z,6.17
2023-01-30T12:50:44.884Z,6.40
2023-01-30T12:53:38.487Z,6.10
2023-01-30T12:56:34.237Z,7.10
2023-01-30T12:59:25.451Z,6.10
2023-01-30T13:02:27.443Z,5.80
2023-01-30T13:05:23.901Z,6.70
2023-01-30T13:08:21.408Z,7.80
2023-01-30T13:11:08.628Z,7.47
2023-01-30T13:14:04.969Z,7.00
2023-01-30T13:17:06.838Z,6.03
2023-01-30T13:19:51.375Z,6.07
2023-01-30T13:22:40.823Z,7.30
2023-01-30T13:25:25.719Z,7.20
2023-01-30T13:28:06.447Z,6.27
2023-01-30T13:30:40.063Z,6.83
2023-01-30T13:33:15.995Z,6.27
2023-01-30T13:35:54.396Z,6.47
2023-01-30T13:38:28.831Z,8.23
2023-01-30T13:41:02.395Z,7.97
2023-01-30T13:43:41.814Z,6.93
2023-01-30T13:46:20.395Z,7.27
2023-01-30T13:49:20.247Z,7.60
2023-01-30T13:52:07.289Z,7.27
2023-01-30T13:55:21.439Z,7.00
2023-01-30T13:58:01.026Z,7.93
2023-01-30T14:00:34.929Z,8.70
2023-01-30T14:03:06.669Z,7.60
2023-01-30T14:06:00.808Z,7.80
2023-01-30T14:08:53.417Z,7.73
2023-01-30T14:11:34.245Z,7.63
2023-01-30T14:14:25.231Z,7.30
2023-01-30T14:17:08.514Z,8.00
2023-01-30T14:19:46.565Z,9.40
2023-01-30T14:22:24.903Z,8.50
2023-01-30T14:25:30.560Z,7.00
2023-01-30T14:28:05.186Z,8.88
2023-01-30T14:30:54.051Z,8.63
2023-01-30T14:33:34.467Z,7.90
2023-01-30T14:36:06.268Z,6.73
2023-01-30T14:38:40.334Z,9.00
2023-01-30T14:41:26.125Z,9.20
2023-01-30T14:43:57.912Z,8.03
2023-01-30T14:46:29.571Z,8.73
2023-01-30T14:49:26.997Z,10.80
2023-01-30T14:51:59.221Z,9.77
2023-01-30T14:54:41.834Z,8.43
2023-01-30T14:57:24.244Z,7.90
2023-01-30T15:00:14.863Z,8.77
2023-01-30T15:02:52.433Z,7.40
2023-01-30T15:05:45.316Z,7.90
2023-01-30T15:08:24.755Z,8.30
2023-01-30T15:10:56.450Z,8.50
2023-01-30T15:13:49.285Z,8.63
2023-01-30T15:17:08.192Z,7.70
2023-01-30T15:19:49.304Z,8.40
2023-01-30T15:22:55.094Z,8.20
2023-01-30T15:25:45.259Z,7.10
2023-01-30T15:28:40.261Z,5.77
2023-01-30T15:31:16.235Z,7.53
2023-01-30T15:33:53.040Z,6.40
2023-01-30T15:36:31.903Z,6.90
2023-01-30T15:39:05.453Z,6.40
2023-01-30T15:41:41.787Z,6.23
2023-01-30T15:44:14.365Z,5.60
2023-01-30T15:46:55.215Z,6.20
2023-01-30T15:49:46.410Z,6.80
2023-01-30T15:52:20.424Z,5.33
2023-01-30T15:54:56.252Z,5.90
2023-01-30T15:57:35.985Z,6.17
2023-01-30T16:00:11.395Z,8.30
2023-01-30T16:02:44.231Z,7.70
2023-01-30T16:05:24.196Z,7.57
2023-01-30T16:07:58.971Z,6.93
2023-01-30T16:10:31.104Z,8.23
2023-01-30T16:13:04.059Z,8.50
2023-01-30T16:15:42.360Z,7.50
2023-01-30T16:18:24.531Z,7.57
2023-01-30T16:21:02.767Z,6.90
2023-01-30T16:23:42.736Z,7.77
2023-01-30T16:26:17.966Z,8.00
2023-01-30T16:28:51.691Z,7.10
2023-01-30T16:31:26.084Z,6.27
2023-01-30T16:33:58.627Z,6.70
2023-01-30T16:36:37.771Z,5.83
2023-01-30T16:39:30.234Z,8.90
2023-01-30T16:42:23.868Z,7.17
2023-01-30T16:45:21.207Z,7.10
2023-01-30T16:47:53.137Z,8.20
2023-01-30T16:50:26.743Z,7.30
2023-01-30T16:52:58.554Z,7.57
2023-01-30T16:55:30.286Z,6.30
2023-01-30T16:58:04.102Z,8.13
2023-01-30T17:00:38.722Z,6.40
2023-01-30T17:03:24.358Z,6.27
2023-01-30T17:05:56.441Z,6.25
2023-01-30T17:08:31.188Z,7.57
2023-01-30T17:11:03.537Z,7.73
2023-01-30T17:13:42.722Z,6.73
2023-01-30T17:16:23.082Z,5.70
2023-01-30T17:18:59.593Z,6.50
2023-01-30T17:21:42.213Z,7.47
2023-01-30T17:24:16.996Z,9.30
2023-01-30T17:26:52.307Z,8.30
2023-01-30T17:29:41.268Z,6.80
2023-01-30T17:32:15.933Z,7.03
2023-01-30T17:34:47.874Z,6.70
2023-01-30T17:37:23.934Z,6.07
2023-01-30T17:39:55.741Z,6.75
2023-01-30T17:42:27.444Z,7.00
2023-01-30T17:44:59.894Z,5.83
2023-01-30T17:47:31.692Z,6.13
2023-01-30T17:50:04.093Z,7.03
2023-01-30T17:52:35.765Z,7.33
2023-01-30T17:55:09.761Z,7.17
2023-01-30T17:57:44.303Z,7.23
2023-01-30T18:00:19.323Z,8.20
2023-01-30T18:02:51.503Z,7.03
2023-01-30T18:05:23.398Z,6.97
2023-01-30T18:07:55.177Z,6.50
2023-01-30T18:10:27.257Z,9.40
2023-01-30T18:12:59.140Z,6.30
2023-01-30T18:15:30.971Z,9.47
2023-01-30T18:18:02.817Z,7.73
2023-01-30T18:20:34.533Z,14.90
2023-01-30T18:23:06.339Z,7.37
2023-01-30T18:25:38.020Z,7.23
2023-01-30T18:28:12.907Z,6.67
2023-01-30T18:30:44.871Z,7.23
2023-01-30T18:33:16.732Z,7.20
2023-01-30T18:35:48.479Z,7.27
2023-01-30T18:38:20.326Z,7.00
2023-01-30T18:40:52.556Z,6.30
2023-01-30T18:43:25.435Z,6.93
2023-01-30T18:46:05.250Z,7.00
2023-01-30T18:48:38.003Z,11.37
2023-01-30T18:51:14.968Z,11.00
2023-01-30T18:53:48.366Z,9.00
2023-01-30T18:56:25.679Z,8.40
2023-01-30T18:58:59.502Z,8.97
2023-01-30T19:01:42.486Z,7.90
2023-01-30T19:04:14.695Z,8.23
2023-01-30T19:06:46.503Z,8.63
2023-01-30T19:09:19.051Z,9.27
2023-01-30T19:12:09.528Z,8.50
2023-01-30T19:14:41.335Z,7.03
2023-01-30T19:17:14.273Z,7.67
2023-01-30T19:19:46.508Z,6.75
2023-01-30T19:22:18.309Z,6.47
2023-01-30T19:24:50.057Z,7.23
2023-01-30T19:27:22.230Z,6.60
2023-01-30T19:29:54.240Z,7.28
2023-01-30T19:32:26.494Z,8.60
2023-01-30T19:34:58.256Z,7.03
2023-01-30T19:37:29.984Z,7.17
2023-01-30T19:40:03.229Z,7.00
2023-01-30T19:42:37.462Z,7.93
2023-01-30T19:45:10.811Z,7.13
2023-01-30T19:47:42.581Z,6.03
2023-01-30T19:50:14.563Z,7.40
2023-01-30T19:52:47.263Z,8.27
2023-01-30T19:55:20.531Z,8.30
2023-01-30T19:57:52.458Z,9.00
2023-01-30T20:00:24.229Z,8.97
2023-01-30T20:02:57.472Z,6.87
2023-01-30T20:05:29.335Z,8.17
2023-01-30T20:08:01.195Z,9.57
2023-01-30T20:10:33.070Z,11.23
2023-01-30T20:13:04.881Z,9.70
2023-01-30T20:15:39.437Z,7.57
2023-01-30T20:18:11.217Z,8.27
2023-01-30T20:20:42.936Z,8.50
2023-01-30T20:23:14.688Z,9.00
2023-01-30T20:25:48.632Z,8.60
2023-01-30T20:28:20.351Z,8.77
2023-01-30T20:30:52.147Z,8.27
2023-01-30T20:33:24.682Z,10.47
2023-01-30T20:36:01.819Z,8.97
2023-01-30T20:38:34.942Z,8.83
2023-01-30T20:41:09.788Z,9.97
2023-01-30T20:43:44.990Z,9.53
2023-01-30T20:46:19.764Z,9.55
2023-01-30T20:48:54.358Z,10.27
2023-01-30T20:51:37.398Z,8.50
2023-01-30T20:54:10.809Z,10.30
2023-01-30T20:56:45.041Z,8.33
2023-01-30T20:59:24.192Z,8.63
2023-01-30T21:01:56.019Z,7.87
2023-01-30T21:04:27.888Z,8.17
2023-01-30T21:07:00.475Z,9.73
2023-01-30T21:09:32.255Z,9.27
2023-01-30T21:12:04.457Z,9.17
2023-01-30T21:14:36.138Z,9.83
2023-01-30T21:17:07.970Z,9.70
2023-01-30T21:19:41.951Z,9.43
2023-01-30T21:22:15.319Z,10.50
2023-01-30T21:24:47.108Z,10.20
2023-01-30T21:27:20.293Z,10.43
2023-01-30T21:29:52.041Z,10.20
2023-01-30T21:32:23.818Z,10.93
2023-01-30T21:34:55.508Z,10.03
2023-01-30T21:37:46.108Z,9.63
2023-01-30T21:40:36.779Z,9.93
2023-01-30T21:43:15.161Z,9.63
2023-01-30T21:45:46.949Z,9.90
2023-01-30T21:48:18.664Z,10.53
2023-01-30T21:50:50.344Z,10.00
2023-01-30T21:53:22.113Z,10.20
2023-01-30T21:55:53.929Z,8.37
2023-01-30T21:58:25.976Z,12.93
2023-01-30T22:01:07.571Z,8.93
2023-01-30T22:03:40.025Z,8.97
2023-01-30T22:06:12.864Z,8.37
2023-01-30T22:08:44.624Z,9.00
2023-01-30T22:11:20.857Z,8.07
2023-01-30T22:13:53.591Z,7.10
2023-01-30T22:16:27.522Z,8.82
2023-01-30T22:19:04.635Z,9.90
2023-01-30T22:21:38.754Z,8.70
2023-01-30T22:24:11.683Z,7.30
2023-01-30T22:26:43.612Z,7.87
2023-01-30T22:29:17.976Z,7.60
2023-01-30T22:31:49.907Z,8.27
2023-01-30T22:34:21.978Z,7.47
2023-01-30T22:36:54.350Z,8.63
2023-01-30T22:39:26.297Z,8.30
2023-01-30T22:41:57.996Z,8.77
2023-01-30T22:44:29.735Z,8.10
2023-01-30T22:47:01.684Z,8.00
2023-01-30T22:49:33.573Z,8.07
2023-01-30T22:52:05.334Z,7.27
2023-01-30T22:54:37.243Z,7.33
2023-01-30T22:57:09.950Z,7.20
2023-01-30T22:59:41.734Z,9.10
2023-01-30T23:02:13.468Z,7.20
2023-01-30T23:04:45.168Z,7.13
2023-01-30T23:07:17.808Z,9.37
2023-01-30T23:09:49.524Z,8.40
2023-01-30T23:12:40.291Z,8.60
2023-01-30T23:15:12.200Z,7.20
2023-01-30T23:18:02.467Z,7.80
2023-01-30T23:20:34.256Z,7.70
2023-01-30T23:23:07.018Z,8.13
2023-01-30T23:25:42.619Z,7.70
2023-01-30T23:28:14.819Z,7.27
2023-01-30T23:30:46.499Z,8.40
2023-01-30T23:33:18.272Z,6.60
2023-01-30T23:35:49.946Z,8.13
2023-01-30T23:38:22.728Z,8.53
2023-01-30T23:41:03.626Z,8.00
2023-01-30T23:43:36.364Z,7.50
2023-01-30T23:46:28.509Z,7.20
2023-01-30T23:49:06.617Z,7.90
2023-01-30T23:51:40.327Z,7.70
2023-01-30T23:54:13.741Z,7.97
2023-01-30T23:56:45.622Z,6.73
2023-01-30T23:59:17.334Z,6.97
